Time;durP1;ratioP1;P1;durP2;ratioP2;P2;SDS_P1;SDS_P2;PMS_P1;PMS_P2;Temp;Humidity;BMP_temperature;BMP_pressure;BME280_temperature;BME280_humidity;BME280_pressure;Samples;Min_cycle;Max_cycle;Signal;HPM_P1;HPM_P2
2021/08/22 00:00:55;;;;;;;1999.90;999.90;;;;;;;15.71;46.41;101213.13;5064809;27;97363;-74
2021/08/22 00:03:24;;;;;;;1999.90;999.90;;;;;;;15.68;46.21;101199.72;5045522;27;100101;-74
2021/08/22 00:05:53;;;;;;;1999.90;999.90;;;;;;;15.69;46.56;101197.91;5064806;27;99412;-74
2021/08/22 00:08:22;;;;;;;1999.90;999.90;;;;;;;15.68;46.16;101197.03;5063950;27;97319;-73
2021/08/22 00:10:50;;;;;;;1999.90;999.90;;;;;;;15.67;46.70;101194.31;5062643;27;97092;-73
2021/08/22 00:13:19;;;;;;;1999.90;999.90;;;;;;;15.65;46.77;101191.63;5065485;27;99357;-73
2021/08/22 00:15:47;;;;;;;1999.90;999.90;;;;;;;15.65;46.51;101202.34;5064162;27;99662;-74
2021/08/22 00:18:15;;;;;;;1999.90;999.90;;;;;;;15.62;46.99;101198.75;5062833;27;96898;-73
2021/08/22 00:20:43;;;;;;;1999.90;999.90;;;;;;;15.63;46.76;101192.53;5062422;27;97988;-74
2021/08/22 00:23:11;;;;;;;1999.90;999.90;;;;;;;15.60;46.60;101193.38;5062120;27;100556;-73
2021/08/22 00:25:40;;;;;;;1999.90;999.90;;;;;;;15.59;46.95;101191.59;5062322;27;99282;-73
2021/08/22 00:28:07;;;;;;;1999.90;999.90;;;;;;;15.58;46.69;101191.56;5064724;27;96894;-74
2021/08/22 00:30:35;;;;;;;1999.90;999.90;;;;;;;15.57;47.04;101193.38;5065000;27;97745;-75
2021/08/22 00:33:03;;;;;;;1999.90;999.90;;;;;;;15.54;46.70;101187.97;5061059;27;97749;-74
2021/08/22 00:35:31;;;;;;;1999.90;999.90;;;;;;;15.53;46.57;101182.59;5049201;27;97611;-74
2021/08/22 00:38:00;;;;;;;1999.90;999.90;;;;;;;15.51;46.80;101177.22;5063557;27;96918;-74
2021/08/22 00:40:28;;;;;;;1999.90;999.90;;;;;;;15.54;46.76;101176.34;5047857;27;97465;-73
2021/08/22 00:42:57;;;;;;;1999.90;999.90;;;;;;;15.60;46.90;101174.59;5046870;27;99673;-74
2021/08/22 00:45:25;;;;;;;1999.90;999.90;;;;;;;15.57;46.42;101171.00;5046902;27;99269;-74
2021/08/22 00:47:52;;;;;;;1999.90;999.90;;;;;;;15.54;46.92;101161.13;5066376;27;97053;-74
2021/08/22 00:50:20;;;;;;;1999.90;999.90;;;;;;;15.54;46.86;101150.41;5047710;27;96855;-73
2021/08/22 00:52:50;;;;;;;1999.90;999.90;;;;;;;15.51;46.82;101150.41;5063895;27;99916;-74
2021/08/22 00:55:18;;;;;;;1999.90;999.90;;;;;;;15.46;47.03;101145.88;5061736;27;98915;-72
2021/08/22 00:57:46;;;;;;;1999.90;999.90;;;;;;;15.43;47.18;101145.88;5046674;27;97450;-74
2021/08/22 01:00:16;;;;;;;1999.90;999.90;;;;;;;15.43;46.92;101144.06;5065642;27;96965;-73
2021/08/22 01:02:46;;;;;;;1999.90;999.90;;;;;;;15.41;46.81;101140.47;5063302;27;100523;-74
2021/08/22 01:05:20;;;;;;;1999.90;999.90;;;;;;;15.39;47.30;101128.88;5064926;27;97730;-73
2021/08/22 01:07:53;;;;;;;1999.90;999.90;;;;;;;15.37;47.16;101121.69;5063077;27;97175;-74
2021/08/22 01:10:25;;;;;;;1999.90;999.90;;;;;;;15.34;47.32;101130.59;5065008;27;97309;-74
2021/08/22 01:12:56;;;;;;;1999.90;999.90;;;;;;;15.34;47.16;101138.66;5062314;27;97922;-74
2021/08/22 01:15:26;;;;;;;1999.90;999.90;;;;;;;15.33;47.11;101133.28;5066198;27;98525;-75
2021/08/22 01:17:55;;;;;;;1999.90;999.90;;;;;;;15.30;47.00;101123.44;5063839;27;97961;-74
2021/08/22 01:20:28;;;;;;;1999.90;999.90;;;;;;;15.28;46.90;101119.81;5064803;27;96984;-74
2021/08/22 01:22:57;;;;;;;1999.90;999.90;;;;;;;15.28;47.01;101121.59;5046769;27;99635;-74
2021/08/22 01:25:25;;;;;;;1999.90;999.90;;;;;;;15.27;47.21;101115.31;5063037;27;101053;-74
2021/08/22 01:27:52;;;;;;;1999.90;999.90;;;;;;;15.25;47.25;101118.91;5062592;27;97055;-75
2021/08/22 01:30:20;;;;;;;1999.90;999.90;;;;;;;15.23;47.09;101124.22;5063688;27;97285;-73
2021/08/22 01:32:51;;;;;;;1999.90;999.90;;;;;;;15.17;47.34;101114.34;5064104;27;99728;-74
2021/08/22 01:35:22;;;;;;;1999.90;999.90;;;;;;;15.20;46.94;101113.50;5063202;27;99439;-74
2021/08/22 01:37:51;;;;;;;1999.90;999.90;;;;;;;15.18;47.21;101107.22;5043593;27;97017;-75
2021/08/22 01:40:20;;;;;;;1999.90;999.90;;;;;;;15.16;47.35;101108.97;5063941;27;97040;-74
2021/08/22 01:42:48;;;;;;;1999.90;999.90;;;;;;;15.12;47.57;101115.19;5062732;27;99721;-74
2021/08/22 01:45:19;;;;;;;1999.90;999.90;;;;;;;15.11;47.28;101121.47;5066207;27;98866;-74
2021/08/22 01:47:48;;;;;;;1999.90;999.90;;;;;;;15.11;47.63;101113.41;5044577;27;97408;-75
2021/08/22 01:50:19;;;;;;;1999.90;999.90;;;;;;;15.09;47.30;101113.41;5065053;27;97095;-75
2021/08/22 01:52:47;;;;;;;1999.90;999.90;;;;;;;15.21;47.32;101107.22;5063102;27;98929;-74
2021/08/22 01:55:16;;;;;;;1999.90;999.90;;;;;;;15.20;46.90;101115.25;5063859;27;99402;-74
2021/08/22 01:57:44;;;;;;;1999.90;999.90;;;;;;;15.19;47.32;101108.13;5064285;27;98424;-75
2021/08/22 02:00:13;;;;;;;1999.90;999.90;;;;;;;15.16;47.27;101114.34;5065209;27;97216;-75
2021/08/22 02:02:46;;;;;;;1999.90;999.90;;;;;;;15.16;46.88;101117.03;5061486;27;100919;-74
2021/08/22 02:05:15;;;;;;;1999.90;999.90;;;;;;;15.04;47.59;101109.81;5063703;27;99192;-74
2021/08/22 02:07:44;;;;;;;1999.90;999.90;;;;;;;15.00;47.55;101117.78;5065848;27;97868;-74
2021/08/22 02:10:18;;;;;;;1999.90;999.90;;;;;;;14.98;47.80;101114.19;5067800;27;96822;-74
2021/08/22 02:12:48;;;;;;;1999.90;999.90;;;;;;;14.98;47.80;101116.88;5065973;27;100351;-75
2021/08/22 02:15:20;;;;;;;1999.90;999.90;;;;;;;14.96;47.74;101110.59;5069905;27;97950;-75
2021/08/22 02:17:51;;;;;;;1999.90;999.90;;;;;;;14.95;47.66;101106.16;5066605;27;96847;-74
2021/08/22 02:20:19;;;;;;;1999.90;999.90;;;;;;;14.95;47.52;101098.09;5067549;27;96954;-74
2021/08/22 02:22:49;;;;;;;1999.90;999.90;;;;;;;14.92;47.82;101104.31;5064726;27;99643;-74
2021/08/22 02:25:18;;;;;;;1999.90;999.90;;;;;;;14.89;47.69;101104.31;5067940;27;98071;-74
2021/08/22 02:27:46;;;;;;;1999.90;999.90;;;;;;;14.88;47.64;101101.63;5067097;27;97040;-74
2021/08/22 02:30:15;;;;;;;1999.90;999.90;;;;;;;14.86;47.71;101095.34;5068434;27;97756;-74
2021/08/22 02:32:42;;;;;;;1999.90;999.90;;;;;;;14.84;48.05;101095.34;5063971;27;99197;-75
2021/08/22 02:35:11;;;;;;;1999.90;999.90;;;;;;;14.83;48.04;101092.63;5065867;27;97629;-74
2021/08/22 02:37:38;;;;;;;1999.90;999.90;;;;;;;14.83;48.08;101085.50;5046483;27;98580;-75
2021/08/22 02:40:09;;;;;;;1999.90;999.90;;;;;;;14.80;47.77;101080.13;5065683;27;96930;-74
2021/08/22 02:42:37;;;;;;;1999.90;999.90;;;;;;;14.80;47.72;101079.22;5067582;27;97552;-74
2021/08/22 02:45:06;;;;;;;1999.90;999.90;;;;;;;14.79;47.90;101064.03;5067920;27;98619;-74
2021/08/22 02:47:34;;;;;;;1999.90;999.90;;;;;;;14.76;47.92;101067.56;5066878;27;96873;-74
2021/08/22 02:50:02;;;;;;;1999.90;999.90;;;;;;;14.74;47.96;101077.38;5067819;27;97007;-73
2021/08/22 02:52:30;;;;;;;1999.90;999.90;;;;;;;14.72;48.20;101073.78;5067355;27;99482;-74
2021/08/22 02:54:57;;;;;;;1999.90;999.90;;;;;;;14.67;48.19;101075.53;5069146;27;98782;-74
2021/08/22 02:57:27;;;;;;;1999.90;999.90;;;;;;;14.63;48.15;101065.66;5069485;27;97352;-74
2021/08/22 02:59:54;;;;;;;1999.90;999.90;;;;;;;14.60;48.35;101064.75;5070934;27;97107;-74
2021/08/22 03:02:22;;;;;;;1999.90;999.90;;;;;;;14.56;48.45;101054.88;5065153;27;100094;-75
2021/08/22 03:04:50;;;;;;;1999.90;999.90;;;;;;;14.55;48.56;101047.72;5066005;27;99559;-74
2021/08/22 03:07:18;;;;;;;1999.90;999.90;;;;;;;14.53;48.46;101039.66;5066531;27;96835;-74
2021/08/22 03:09:46;;;;;;;1999.90;999.90;;;;;;;14.52;48.36;101036.94;5050701;27;96848;-74
2021/08/22 03:12:13;;;;;;;1999.90;999.90;;;;;;;14.51;48.61;101035.16;5047899;27;99755;-74
2021/08/22 03:14:43;;;;;;;1999.90;999.90;;;;;;;14.51;48.51;101032.50;5066526;27;97672;-74
2021/08/22 03:17:10;;;;;;;1999.90;999.90;;;;;;;14.46;48.59;101031.56;5066813;27;97724;-74
2021/08/22 03:19:38;;;;;;;1999.90;999.90;;;;;;;14.44;48.63;101033.31;5068581;27;96911;-74
2021/08/22 03:22:06;;;;;;;1999.90;999.90;;;;;;;14.41;48.59;101027.94;5047524;27;99410;-75
2021/08/22 03:24:34;;;;;;;1999.90;999.90;;;;;;;14.40;48.82;101032.41;5044824;27;101824;-74
2021/08/22 03:27:02;;;;;;;1999.90;999.90;;;;;;;14.39;48.54;101027.03;5066852;27;98949;-74
2021/08/22 03:29:29;;;;;;;1999.90;999.90;;;;;;;14.36;48.73;101029.66;5065672;27;97734;-75
2021/08/22 03:31:58;;;;;;;1999.90;999.90;;;;;;;14.37;48.70;101027.00;5066743;27;98275;-74
2021/08/22 03:34:26;;;;;;;1999.90;999.90;;;;;;;14.36;48.70;101030.56;5063200;27;99017;-74
2021/08/22 03:36:54;;;;;;;1999.90;999.90;;;;;;;14.34;48.81;101031.41;5065926;27;98871;-74
2021/08/22 03:39:22;;;;;;;1999.90;999.90;;;;;;;14.33;48.65;101035.00;5067991;27;97222;-75
2021/08/22 03:41:49;;;;;;;1999.90;999.90;;;;;;;14.30;48.94;101029.63;5066038;27;99261;-74
2021/08/22 03:44:17;;;;;;;1999.90;999.90;;;;;;;14.28;48.93;101039.41;5067804;27;100953;-74
2021/08/22 03:46:45;;;;;;;1999.90;999.90;;;;;;;14.25;48.73;101039.38;5062945;27;97352;-75
2021/08/22 03:49:14;;;;;;;1999.90;999.90;;;;;;;14.26;48.77;101038.50;5068424;27;96972;-75
2021/08/22 03:51:42;;;;;;;1999.90;999.90;;;;;;;14.19;48.76;101042.00;5064998;27;100583;-74
2021/08/22 03:54:09;;;;;;;1999.90;999.90;;;;;;;14.18;48.71;101043.78;5064134;27;101038;-74
2021/08/22 03:56:37;;;;;;;1999.90;999.90;;;;;;;14.13;48.86;101037.47;5064809;27;99007;-74
2021/08/22 03:59:07;;;;;;;1999.90;999.90;;;;;;;14.11;49.06;101034.78;5048428;27;97015;-74
2021/08/22 04:01:35;;;;;;;1999.90;999.90;;;;;;;14.08;49.16;101034.75;5049487;27;97992;-73
2021/08/22 04:04:11;;;;;;;1999.90;999.90;;;;;;;14.07;49.17;101026.69;5046548;27;98969;-73
2021/08/22 04:06:48;;;;;;;1999.90;999.90;;;;;;;14.06;48.97;101024.91;5063141;27;97418;-74
2021/08/22 04:09:16;;;;;;;1999.90;999.90;;;;;;;14.04;49.11;101018.66;5066676;27;97071;-75
2021/08/22 04:11:46;;;;;;;1999.90;999.90;;;;;;;14.02;48.99;101015.06;5036641;27;101136;-74
2021/08/22 04:14:14;;;;;;;1999.90;999.90;;;;;;;14.01;49.03;101016.81;5065084;27;97893;-74
2021/08/22 04:16:43;;;;;;;1999.90;999.90;;;;;;;14.01;49.11;101016.81;5061974;27;96920;-73
2021/08/22 04:19:10;;;;;;;1999.90;999.90;;;;;;;13.99;49.21;101018.59;5066747;27;96859;-72
2021/08/22 04:21:39;;;;;;;1999.90;999.90;;;;;;;13.98;49.21;101015.91;5062114;27;99682;-74
2021/08/22 04:24:09;;;;;;;1999.90;999.90;;;;;;;13.97;49.36;101009.63;5064715;27;99802;-74
2021/08/22 04:26:38;;;;;;;1999.90;999.90;;;;;;;13.97;49.22;101009.63;5060107;27;97682;-75
2021/08/22 04:29:06;;;;;;;1999.90;999.90;;;;;;;13.96;49.23;101007.84;5062918;27;97780;-75
2021/08/22 04:31:34;;;;;;;1999.90;999.90;;;;;;;13.95;49.32;101011.41;5047194;27;99469;-74
2021/08/22 04:34:02;;;;;;;1999.90;999.90;;;;;;;13.97;49.33;101001.63;5064919;27;99045;-74
2021/08/22 04:36:29;;;;;;;1999.90;999.90;;;;;;;13.97;49.28;101004.28;5064557;27;96807;-74
2021/08/22 04:38:57;;;;;;;1999.90;999.90;;;;;;;14.00;49.23;101008.78;5065600;27;97161;-75
2021/08/22 04:41:26;;;;;;;1999.90;999.90;;;;;;;14.00;49.25;101008.78;5064742;27;97458;-74
2021/08/22 04:43:54;;;;;;;1999.90;999.90;;;;;;;14.01;49.28;101010.56;5063383;27;98245;-74
2021/08/22 04:46:22;;;;;;;1999.90;999.90;;;;;;;14.01;49.44;101010.56;5064513;27;97770;-74
2021/08/22 04:48:50;;;;;;;1999.90;999.90;;;;;;;14.00;49.13;101011.47;5065230;27;97580;-75
2021/08/22 04:51:18;;;;;;;1999.90;999.90;;;;;;;14.00;49.22;101006.09;5065535;27;98580;-74
2021/08/22 04:53:46;;;;;;;1999.90;999.90;;;;;;;14.04;49.01;101003.47;5061332;27;97382;-74
2021/08/22 04:56:14;;;;;;;1999.90;999.90;;;;;;;14.03;49.36;101000.78;5062898;27;97489;-74
2021/08/22 04:58:43;;;;;;;1999.90;999.90;;;;;;;14.02;49.08;100999.00;5064181;27;97008;-74
2021/08/22 05:01:11;;;;;;;1999.90;999.90;;;;;;;14.01;49.34;101000.78;5060585;27;98693;-74
2021/08/22 05:03:41;;;;;;;1999.90;999.90;;;;;;;13.98;49.49;100995.41;5064829;27;99162;-74
2021/08/22 05:06:10;;;;;;;1999.90;999.90;;;;;;;14.39;48.51;101002.94;5062303;27;98899;-74
2021/08/22 05:08:38;;;;;;;1999.90;999.90;;;;;;;14.17;48.98;101003.59;5064210;27;97514;-74
2021/08/22 05:11:06;;;;;;;1999.90;999.90;;;;;;;14.10;49.36;101000.88;5034890;27;99314;-73
2021/08/22 05:13:37;;;;;;;1999.90;999.90;;;;;;;14.10;49.25;101006.22;5063009;27;101133;-74
2021/08/22 05:16:06;;;;;;;1999.90;999.90;;;;;;;14.07;49.07;100995.50;5049848;27;98236;-74
2021/08/22 05:18:35;;;;;;;1999.90;999.90;;;;;;;14.06;49.32;100999.03;5064885;27;97168;-74
2021/08/22 05:21:02;;;;;;;1999.90;999.90;;;;;;;14.07;49.08;100998.16;5064643;27;97908;-75
2021/08/22 05:23:32;;;;;;;1999.90;999.90;;;;;;;14.08;49.06;100999.94;5046922;27;100314;-74
2021/08/22 05:25:59;;;;;;;1999.90;999.90;;;;;;;14.11;49.19;100994.66;5063779;27;97158;-74
2021/08/22 05:28:27;;;;;;;1999.90;999.90;;;;;;;14.10;48.99;101006.22;5062451;27;97468;-74
2021/08/22 05:30:55;;;;;;;1999.90;999.90;;;;;;;14.03;49.11;100999.00;5046877;27;100324;-74
2021/08/22 05:33:24;;;;;;;1999.90;999.90;;;;;;;14.02;49.22;100997.19;5058039;27;98595;-74
2021/08/22 05:35:52;;;;;;;1999.90;999.90;;;;;;;14.02;49.14;101002.53;5065893;27;97413;-74
2021/08/22 05:38:20;;;;;;;1999.90;999.90;;;;;;;14.05;49.10;101007.97;5061707;27;97348;-74
2021/08/22 05:40:47;;;;;;;1999.90;999.90;;;;;;;14.04;49.31;100997.25;5063504;27;97381;-74
2021/08/22 05:43:15;;;;;;;1999.90;999.90;;;;;;;14.06;49.07;101000.84;5062626;27;98910;-74
2021/08/22 05:45:46;;;;;;;1999.90;999.90;;;;;;;14.08;49.25;101005.31;5046637;27;96804;-74
2021/08/22 05:48:14;;;;;;;1999.90;999.90;;;;;;;14.09;49.18;100998.19;5063125;27;97749;-74
2021/08/22 05:50:43;;;;;;;1999.90;999.90;;;;;;;14.10;49.00;101006.22;5065246;27;97776;-74
2021/08/22 05:53:11;;;;;;;1999.90;999.90;;;;;;;14.11;48.79;100997.31;5062440;27;97545;-74
2021/08/22 05:55:39;;;;;;;1999.90;999.90;;;;;;;14.11;48.97;100993.75;5047081;27;97976;-74
2021/08/22 05:58:07;;;;;;;1999.90;999.90;;;;;;;14.11;49.14;100991.06;5046693;27;96902;-74
2021/08/22 06:00:36;;;;;;;1999.90;999.90;;;;;;;14.11;48.93;100991.97;5065071;27;98777;-75
2021/08/22 06:03:04;;;;;;;1999.90;999.90;;;;;;;14.11;49.08;100997.31;5062160;27;99217;-74
2021/08/22 06:05:32;;;;;;;1999.90;999.90;;;;;;;14.08;49.14;101004.41;5066874;27;97377;-74
2021/08/22 06:08:01;;;;;;;1999.90;999.90;;;;;;;14.08;49.05;101004.41;5064576;27;97637;-74
2021/08/22 06:10:29;;;;;;;1999.90;999.90;;;;;;;14.07;49.23;100995.50;5064854;27;97900;-74
2021/08/22 06:12:57;;;;;;;1999.90;999.90;;;;;;;14.06;49.17;100996.34;5063957;27;97678;-74
2021/08/22 06:15:25;;;;;;;1999.90;999.90;;;;;;;14.04;49.35;100995.44;5062708;27;97064;-73
2021/08/22 06:17:53;;;;;;;1999.90;999.90;;;;;;;14.03;49.42;101001.69;5063044;27;97704;-74
2021/08/22 06:20:21;;;;;;;1999.90;999.90;;;;;;;14.04;49.40;101014.16;5062065;27;97830;-76
2021/08/22 06:22:49;;;;;;;1999.90;999.90;;;;;;;13.99;49.46;101020.34;5063263;27;101172;-75
2021/08/22 06:25:19;;;;;;;1999.90;999.90;;;;;;;13.97;49.56;101014.09;5064116;27;97296;-75
2021/08/22 06:27:47;;;;;;;1999.90;999.90;;;;;;;13.98;49.55;101021.25;5050931;27;98418;-75
2021/08/22 06:30:15;;;;;;;1999.90;999.90;;;;;;;13.99;49.58;101012.31;5061979;27;97062;-75
2021/08/22 06:32:43;;;;;;;1999.90;999.90;;;;;;;14.01;49.75;101010.56;5054827;27;97800;-75
2021/08/22 06:35:11;;;;;;;1999.90;999.90;;;;;;;14.03;49.73;101023.09;5061575;27;98260;-75
2021/08/22 06:37:40;;;;;;;1999.90;999.90;;;;;;;14.03;49.69;101057.88;5059376;27;97728;-75
2021/08/22 06:40:09;;;;;;;1999.90;999.90;;;;;;;13.92;49.85;101088.06;5062684;27;98981;-75
2021/08/22 06:42:38;;;;;;;1999.90;999.90;;;;;;;13.76;50.00;101073.56;5062870;27;97192;-75
2021/08/22 06:45:08;;;;;;;1999.90;999.90;;;;;;;13.67;50.25;101051.16;5061185;27;97433;-75
2021/08/22 06:47:35;;;;;;;1999.90;999.90;;;;;;;13.64;50.33;101054.66;5059670;27;98695;-75
2021/08/22 06:50:04;;;;;;;1999.90;999.90;;;;;;;13.65;50.38;101083.22;5055888;27;97983;-74
2021/08/22 06:52:31;;;;;;;1999.90;999.90;;;;;;;13.59;50.44;101085.81;5058841;27;98981;-73
2021/08/22 06:54:59;;;;;;;1999.90;999.90;;;;;;;13.55;50.52;101065.25;5066307;27;97156;-74
2021/08/22 06:57:27;;;;;;;1999.90;999.90;;;;;;;13.56;50.52;101068.84;5067219;27;97719;-75
2021/08/22 06:59:56;;;;;;;1999.90;999.90;;;;;;;13.61;50.46;101068.00;5065776;27;99664;-74
2021/08/22 07:02:24;;;;;;;1999.90;999.90;;;;;;;13.66;50.46;101060.06;5065055;27;98915;-74
2021/08/22 07:04:52;;;;;;;1999.90;999.90;;;;;;;13.71;50.35;101050.31;5067080;27;97943;-74
2021/08/22 07:07:20;;;;;;;1999.90;999.90;;;;;;;13.74;50.25;101058.38;5046360;27;97772;-74
2021/08/22 07:09:48;;;;;;;1999.90;999.90;;;;;;;13.77;50.26;101061.97;5046010;27;101752;-74
2021/08/22 07:12:15;;;;;;;1999.90;999.90;;;;;;;13.81;50.29;101073.66;5061707;27;98817;-75
2021/08/22 07:14:44;;;;;;;1999.90;999.90;;;;;;;13.83;50.27;101066.53;5063569;27;97346;-75
2021/08/22 07:17:19;;;;;;;1999.90;999.90;;;;;;;13.84;50.27;101060.31;5064720;27;98281;-75
2021/08/22 07:19:48;;;;;;;1999.90;999.90;;;;;;;13.86;50.31;101064.81;5063815;27;98783;-75
2021/08/22 07:22:15;;;;;;;1999.90;999.90;;;;;;;13.87;50.44;101069.28;5067050;27;97523;-74
2021/08/22 07:24:43;;;;;;;1999.90;999.90;;;;;;;13.87;50.24;101071.97;5065145;27;98455;-75
2021/08/22 07:27:11;;;;;;;1999.90;999.90;;;;;;;13.88;50.19;101073.75;5046210;27;97396;-74
2021/08/22 07:29:39;;;;;;;1999.90;999.90;;;;;;;13.88;50.26;101072.84;5064620;27;98569;-75
2021/08/22 07:32:08;;;;;;;1999.90;999.90;;;;;;;13.87;50.34;101069.28;5046275;27;98781;-75
2021/08/22 07:34:37;;;;;;;1999.90;999.90;;;;;;;13.87;50.33;101077.31;5063596;27;99078;-75
2021/08/22 07:37:05;;;;;;;1999.90;999.90;;;;;;;13.87;50.31;101076.41;5068220;27;96955;-75
2021/08/22 07:39:33;;;;;;;1999.90;999.90;;;;;;;13.86;50.24;101088.88;5065957;27;100376;-76
2021/08/22 07:42:01;;;;;;;1999.90;999.90;;;;;;;13.84;50.49;101084.41;5052221;27;99087;-75
2021/08/22 07:44:29;;;;;;;1999.90;999.90;;;;;;;13.82;50.47;101079.00;5050654;27;96860;-75
2021/08/22 07:46:57;;;;;;;1999.90;999.90;;;;;;;13.82;50.58;101073.66;5065178;27;97062;-75
2021/08/22 07:49:24;;;;;;;1999.90;999.90;;;;;;;13.83;50.63;101080.81;5048884;27;99385;-75
2021/08/22 07:51:54;;;;;;;1999.90;999.90;;;;;;;13.85;50.64;101083.50;5065973;27;98031;-76
2021/08/22 07:54:22;;;;;;;1999.90;999.90;;;;;;;13.87;50.63;101080.00;5065919;27;98457;-75
2021/08/22 07:56:50;;;;;;;1999.90;999.90;;;;;;;13.85;50.68;101068.38;5063933;27;97324;-75
2021/08/22 07:59:17;;;;;;;1999.90;999.90;;;;;;;13.79;50.93;101068.28;5067850;27;97705;-75
2021/08/22 08:01:45;;;;;;;1999.90;999.90;;;;;;;13.77;50.90;101075.34;5065741;27;99210;-75
2021/08/22 08:04:13;;;;;;;1999.90;999.90;;;;;;;13.76;51.06;101068.22;5068015;27;97506;-74
2021/08/22 08:06:41;;;;;;;1999.90;999.90;;;;;;;13.76;51.02;101062.88;5067087;27;97679;-75
2021/08/22 08:09:10;;;;;;;1999.90;999.90;;;;;;;13.76;51.30;101068.22;5065364;27;100889;-75
2021/08/22 08:11:38;;;;;;;1999.90;999.90;;;;;;;13.78;51.12;101063.78;5067992;27;97677;-74
2021/08/22 08:14:05;;;;;;;1999.90;999.90;;;;;;;13.77;51.20;101075.34;5064836;27;97887;-75
2021/08/22 08:16:33;;;;;;;1999.90;999.90;;;;;;;13.75;51.19;101071.75;5053686;27;97016;-75
2021/08/22 08:19:01;;;;;;;1999.90;999.90;;;;;;;13.76;51.39;101078.00;5044902;27;100705;-76
2021/08/22 08:21:29;;;;;;;1999.90;999.90;;;;;;;13.75;51.58;101082.44;5067336;27;97896;-75
2021/08/22 08:23:57;;;;;;;1999.90;999.90;;;;;;;13.73;51.53;101068.16;5067186;27;97840;-75
2021/08/22 08:26:27;;;;;;;1999.90;999.90;;;;;;;13.73;51.67;101059.25;5053267;27;97064;-75
2021/08/22 08:28:54;;;;;;;1999.90;999.90;;;;;;;13.71;51.82;101067.28;5062533;27;97839;-75
2021/08/22 08:31:22;;;;;;;1999.90;999.90;;;;;;;13.70;51.76;101064.56;5065360;27;99333;-75
2021/08/22 08:33:50;;;;;;;1999.90;999.90;;;;;;;13.70;51.92;101073.47;5065012;27;96993;-74
2021/08/22 08:36:18;;;;;;;1999.90;999.90;;;;;;;13.70;51.76;101073.47;5064546;27;98223;-74
2021/08/22 08:38:45;;;;;;;1999.90;999.90;;;;;;;13.70;51.84;101067.22;5055667;27;99341;-74
2021/08/22 08:41:13;;;;;;;1999.90;999.90;;;;;;;13.69;52.01;101058.31;5064341;27;98347;-75
2021/08/22 08:43:45;;;;;;;1999.90;999.90;;;;;;;13.69;52.05;101068.13;5063170;27;96879;-76
2021/08/22 08:46:15;;;;;;;1999.90;999.90;;;;;;;13.69;52.00;101060.09;5063811;27;96863;-75
2021/08/22 08:48:43;;;;;;;1999.90;999.90;;;;;;;13.66;52.13;101066.28;5058788;27;99730;-75
2021/08/22 08:51:15;;;;;;;1999.90;999.90;;;;;;;13.66;52.15;101068.09;5064889;27;99425;-75
2021/08/22 08:53:44;;;;;;;1999.90;999.90;;;;;;;13.67;52.08;101073.47;5062507;27;96846;-76
2021/08/22 08:56:11;;;;;;;1999.90;999.90;;;;;;;13.67;52.21;101077.91;5058570;27;98031;-75
2021/08/22 08:58:39;;;;;;;1999.90;999.90;;;;;;;13.65;52.00;101085.91;5044018;27;101365;-76
2021/08/22 09:01:08;;;;;;;1999.90;999.90;;;;;;;13.63;52.41;101079.63;5062099;27;98294;-75
2021/08/22 09:03:43;;;;;;;1999.90;999.90;;;;;;;13.66;52.28;101093.03;5052534;27;97984;-76
2021/08/22 09:06:34;;;;;;;1999.90;999.90;;;;;;;13.68;52.19;101093.94;5064942;27;97117;-76
2021/08/22 09:09:41;;;;;;;1999.90;999.90;;;;;;;13.69;52.73;101106.47;5062463;27;99219;-76
2021/08/22 09:12:38;;;;;;;1999.90;999.90;;;;;;;13.71;52.72;101111.84;5065259;27;96886;-76
2021/08/22 09:15:44;;;;;;;1999.90;999.90;;;;;;;13.71;52.68;101111.84;5046460;27;96888;-75
2021/08/22 09:18:57;;;;;;;1999.90;999.90;;;;;;;13.71;52.98;101115.41;5048194;27;97173;-76
2021/08/22 09:22:02;;;;;;;1999.90;999.90;;;;;;;13.76;52.89;101121.72;5023848;27;99787;-76
2021/08/22 09:25:19;;;;;;;1999.90;999.90;;;;;;;13.82;52.76;101118.25;5063936;27;99745;-76
2021/08/22 09:28:11;;;;;;;1999.90;999.90;;;;;;;13.84;52.55;101106.69;5003485;28;98067;-75
2021/08/22 09:31:19;;;;;;;1999.90;999.90;;;;;;;13.83;53.00;101101.31;5075436;27;96758;-75
2021/08/22 09:34:26;;;;;;;1999.90;999.90;;;;;;;13.88;52.70;101100.50;5062865;27;99695;-74
2021/08/22 09:37:32;;;;;;;1999.90;999.90;;;;;;;13.94;52.66;101105.03;5063640;27;101230;-75
2021/08/22 09:40:33;;;;;;;1999.90;999.90;;;;;;;13.98;52.73;101113.13;5064569;27;97761;-79
2021/08/22 09:43:39;;;;;;;1999.90;999.90;;;;;;;14.04;52.59;101118.53;5066068;27;97297;-76
2021/08/22 09:46:44;;;;;;;1999.90;999.90;;;;;;;14.05;52.83;101104.28;5054679;27;100668;-75
2021/08/22 09:49:35;;;;;;;1999.90;999.90;;;;;;;14.05;53.42;101112.31;5060823;27;97575;-75
2021/08/22 09:52:43;;;;;;;1999.90;999.90;;;;;;;13.89;53.01;101114.78;5046126;27;97141;-75
2021/08/22 09:55:48;;;;;;;1999.90;999.90;;;;;;;13.86;53.33;101117.44;5046683;27;98258;-76
2021/08/22 09:58:58;;;;;;;1999.90;999.90;;;;;;;13.81;53.18;101125.38;5066305;27;98028;-75
2021/08/22 10:02:12;;;;;;;1999.90;999.90;;;;;;;13.78;53.07;101125.31;4989195;27;96816;-75
2021/08/22 10:05:01;;;;;;;1999.90;999.90;;;;;;;13.83;52.63;101134.31;5046139;27;96988;-75
2021/08/22 10:07:58;;;;;;;1999.90;999.90;;;;;;;13.90;52.72;101130.84;5057084;27;97320;-76
2021/08/22 10:10:27;;;;;;;1999.90;999.90;;;;;;;13.99;52.40;101130.06;5043416;27;99278;-74
2021/08/22 10:12:55;;;;;;;1999.90;999.90;;;;;;;14.01;52.39;101134.56;5063251;27;97633;-71
2021/08/22 10:15:23;;;;;;;1999.90;999.90;;;;;;;14.00;52.48;101132.78;5044025;27;97748;-70
2021/08/22 10:17:51;;;;;;;1999.90;999.90;;;;;;;14.05;52.19;101132.81;5061366;27;97826;-74
2021/08/22 10:20:21;;;;;;;1999.90;999.90;;;;;;;14.36;52.37;101131.41;5061022;27;97705;-71
2021/08/22 10:22:51;;;;;;;1999.90;999.90;;;;;;;14.14;52.58;101135.59;5064386;27;100660;-78
2021/08/22 10:25:47;;;;;;;1999.90;999.90;;;;;;;14.11;53.29;101131.13;5046069;27;97410;-75
2021/08/22 10:28:15;;;;;;;1999.90;999.90;;;;;;;14.19;52.58;101127.66;5066704;27;97679;-77
2021/08/22 10:30:43;;;;;;;1999.90;999.90;;;;;;;14.24;52.56;101141.97;5068962;27;100606;-75
2021/08/22 10:33:15;;;;;;;1999.90;999.90;;;;;;;14.29;52.39;101135.78;5064556;27;97708;-74
2021/08/22 10:35:44;;;;;;;1999.90;999.90;;;;;;;14.34;52.19;101131.38;5064786;27;96934;-75
2021/08/22 10:38:23;;;;;;;1999.90;999.90;;;;;;;14.38;52.52;101135.00;5080887;27;97117;-76
2021/08/22 10:40:51;;;;;;;1999.90;999.90;;;;;;;14.42;52.24;101135.06;5061125;27;97987;-75
2021/08/22 10:43:41;;;;;;;1999.90;999.90;;;;;;;14.46;52.43;101133.31;5062300;27;99050;-75
2021/08/22 10:46:10;;;;;;;1999.90;999.90;;;;;;;14.51;52.01;101132.47;5062090;27;99231;-75
2021/08/22 10:48:54;;;;;;;1999.90;999.90;;;;;;;14.53;52.43;101132.50;5061555;27;98025;-76
2021/08/22 10:51:24;;;;;;;1999.90;999.90;;;;;;;14.57;51.82;101124.53;5060047;27;100892;-76
2021/08/22 10:54:17;;;;;;;1999.90;999.90;;;;;;;14.55;51.73;101126.31;5058406;27;97824;-75
2021/08/22 10:56:45;;;;;;;1999.90;999.90;;;;;;;14.60;51.78;101129.03;5060739;27;97101;-75
2021/08/22 10:59:14;;;;;;;1999.90;999.90;;;;;;;14.65;51.93;101119.25;5057215;27;98132;-74
2021/08/22 11:01:42;;;;;;;1999.90;999.90;;;;;;;14.67;51.49;101113.03;5064750;27;98589;-76
2021/08/22 11:04:12;;;;;;;1999.90;999.90;;;;;;;14.71;51.72;101120.22;5048198;27;98479;-77
2021/08/22 11:06:58;;;;;;;1999.90;999.90;;;;;;;14.75;52.19;101121.16;5066629;27;96930;-77